Wolf, WY (82844)

1:12 PM MST on February 14, 2016 (GMT -0700)
KWYSHERI2 | | Change Station
CLOSE
Current Station
Personal Weather Station
Location: Sheridan, WY
Elevation: 3828 ft
Nearby Weather Stations

Elev 3828 ft 44.81 °N, 106.98 °W | Updated 11 seconds ago

Overcast
Overcast
42.6 °F
Feels Like 40 °F
N
4.0
Wind Variable Wind from NW
Gusts 8.0 mph

Today
High -- | Low -- °F
--% Chance of Precip.
Yesterday
High -- | Low -- °F
Precip. -- in
Pressure 29.85 in
Visibility -9999.0 miles
Clouds Scattered Clouds 6000 ft
Scattered Clouds 7500 ft
Mostly Cloudy 9500 ft
Windchill 40 °F
Dew Point 26 °F
Humidity 52%
Rainfall 0.00 in
Snow Depth Not available.
7:11 AM 5:35 PM
Waxing Crescent, 45% visible
METAR KSHR 141953Z AUTO 28020G26KT SCT060 SCT075 BKN095 06/M04 A2979 RMK AO2 PK WND 28026/1952 WSHFT 1931 RAB35E44 PRESFR SLP108 P0000 T00611039 $
Pressure 29.85 in
Visibility -9999.0 miles
Clouds Scattered Clouds 6000 ft
Scattered Clouds 7500 ft
Mostly Cloudy 9500 ft
Windchill 40 °F
Dew Point 26 °F
Humidity 52%
Rainfall 0.00 in
Snow Depth Not available.
7:11 AM 5:35 PM
Waxing Crescent, 45% visible
METAR KSHR 141953Z AUTO 28020G26KT SCT060 SCT075 BKN095 06/M04 A2979 RMK AO2 PK WND 28026/1952 WSHFT 1931 RAB35E44 PRESFR SLP108 P0000 T00611039 $

10-Day Weather Forecast

Almanac

Astronomy

Feb. 14, 2016 Rise Set
Actual Time
Civil Twilight
Nautical Twilight
Astronomical Twilight
Moon
Length of Visible Light
Length of Day
Tomorrow will be .
, % of the Moon is Illuminated

Today's Extremes

State Highs State Lows

Community

WunderPhotos

Upload Photos

1,892,880 photos uploaded!

WunderBlog® & News

Nearby

Air Quality

  Air Quality AQ Index Pollutant
Not available.

Snow Depth

Station Depth Elevation

Earthquake Activity

City Distance Mag. Time & Date
Minimum magnitude displayed is 2.5.

Coastal Water Temperatures

Place Temperature

Stations

Nearby Weather Stations

Station Location Temp. Windchill Dew Point Humidity Wind Precip. Elev Updated Type
                   

Watches & Warnings

There are currently no watches in effect.